Time;durP1;ratioP1;P1;durP2;ratioP2;P2;SDS_P1;SDS_P2;PMS_P1;PMS_P2;Temp;Humidity;BMP_temperature;BMP_pressure;BME280_temperature;BME280_humidity;BME280_pressure;Samples;Min_cycle;Max_cycle;Signal;HPM_P1;HPM_P2
2021/09/29 00:01:27;;;;;;;9.10;5.28;;;;;;;20.30;46.39;100064.31;4419391;32;20045;-68
2021/09/29 00:03:53;;;;;;;7.43;5.47;;;;;;;20.47;46.08;100063.00;4417801;32;20069;-68
2021/09/29 00:06:19;;;;;;;5.90;4.50;;;;;;;20.46;45.99;100072.09;4419578;32;20089;-68
2021/09/29 00:08:45;;;;;;;5.20;3.67;;;;;;;20.22;45.65;100069.03;4420804;32;20030;-68
2021/09/29 00:11:11;;;;;;;5.68;3.15;;;;;;;19.83;45.72;100075.47;4420969;32;20378;-68
2021/09/29 00:13:37;;;;;;;4.37;3.05;;;;;;;20.15;45.19;100073.16;4419603;32;20033;-68
2021/09/29 00:16:03;;;;;;;5.12;3.80;;;;;;;20.23;44.36;100073.44;4419634;32;20627;-68
2021/09/29 00:18:29;;;;;;;5.47;4.35;;;;;;;20.03;45.41;100082.25;4419717;32;20480;-68
2021/09/29 00:20:55;;;;;;;7.57;4.50;;;;;;;19.97;45.64;100085.09;4418160;32;20077;-68
2021/09/29 00:23:21;;;;;;;5.40;3.97;;;;;;;20.04;45.57;100084.59;4421200;32;20033;-68
2021/09/29 00:25:47;;;;;;;9.38;4.10;;;;;;;20.06;45.27;100087.69;4418827;32;20720;-68
2021/09/29 00:28:12;;;;;;;4.87;3.30;;;;;;;19.86;45.66;100099.38;4421234;32;20400;-68
2021/09/29 00:30:50;;;;;;;4.62;2.83;;;;;;;19.75;45.39;100094.44;4419150;32;20472;-68
2021/09/29 00:33:18;;;;;;;3.40;3.10;;;;;;;19.55;45.59;100096.75;4418374;32;20062;-68
2021/09/29 00:35:44;;;;;;;6.05;2.85;;;;;;;19.86;45.35;100107.94;4420844;32;20057;-68
2021/09/29 00:38:10;;;;;;;4.30;3.03;;;;;;;19.31;45.43;100108.63;4420536;32;20370;-68
2021/09/29 00:40:36;;;;;;;4.00;1.60;;;;;;;19.45;45.49;100115.37;4420516;32;20069;-68
2021/09/29 00:43:02;;;;;;;2.83;1.20;;;;;;;19.01;45.59;100113.12;4418439;32;20065;-68
2021/09/29 00:45:28;;;;;;;4.70;1.17;;;;;;;18.73;46.04;100115.06;4418176;32;20037;-68
2021/09/29 00:47:54;;;;;;;3.95;0.90;;;;;;;18.75;45.87;100111.69;4419770;32;20085;-68
2021/09/29 00:50:19;;;;;;;2.55;1.15;;;;;;;18.80;45.47;100117.41;4422411;32;20089;-68
2021/09/29 00:52:45;;;;;;;2.33;1.00;;;;;;;18.80;45.44;100123.13;4422983;32;20056;-68
2021/09/29 00:55:13;;;;;;;2.67;0.90;;;;;;;18.78;45.79;100120.00;4420703;32;20085;-68
2021/09/29 00:57:39;;;;;;;2.58;1.15;;;;;;;19.09;45.17;100131.28;4422382;32;20077;-68
2021/09/29 01:00:07;;;;;;;6.97;1.33;;;;;;;18.85;45.78;100127.28;4425458;32;20077;-68
2021/09/29 01:02:33;;;;;;;3.05;1.10;;;;;;;18.98;45.37;100124.75;4422973;32;20370;-68
2021/09/29 01:04:59;;;;;;;1.90;1.20;;;;;;;18.85;45.82;100121.59;4423185;32;20089;-68
2021/09/29 01:07:33;;;;;;;4.87;1.20;;;;;;;18.62;45.99;100123.53;4421273;32;20078;-68
2021/09/29 01:13:00;;;;;;;2.08;0.73;;;;;;;18.88;45.99;100127.06;3982199;32;15024351;-68
2021/09/29 01:15:31;;;;;;;1.42;0.60;;;;;;;18.99;45.77;100129.19;4436334;32;20095;-69
2021/09/29 01:18:02;;;;;;;2.08;1.00;;;;;;;18.73;46.33;100135.00;4436663;32;20081;-68
2021/09/29 01:20:34;;;;;;;2.80;1.02;;;;;;;18.94;46.06;100121.38;4437141;32;20043;-68
2021/09/29 01:28:36;;;;;;;2.28;1.00;;;;;;;19.17;45.46;100135.22;3985270;32;15024264;-68
2021/09/29 01:31:03;;;;;;;4.50;0.80;;;;;;;18.41;46.64;100127.78;4435856;32;20048;-68
2021/09/29 01:33:31;;;;;;;2.45;0.60;;;;;;;18.26;46.68;100135.69;4436994;32;20458;-68
2021/09/29 01:35:57;;;;;;;1.30;0.60;;;;;;;18.25;46.86;100139.03;4438020;32;20073;-68
2021/09/29 01:38:24;;;;;;;2.00;0.60;;;;;;;18.00;46.82;100137.78;4435471;32;20092;-68
2021/09/29 01:40:50;;;;;;;5.32;0.95;;;;;;;18.04;46.65;100148.97;4438337;32;20385;-69
2021/09/29 01:43:18;;;;;;;2.90;0.80;;;;;;;18.02;46.80;100152.31;4437421;32;20029;-68
2021/09/29 01:45:45;;;;;;;3.72;0.82;;;;;;;18.07;46.79;100139.41;4432402;32;20080;-68
2021/09/29 01:48:11;;;;;;;2.28;0.90;;;;;;;18.26;46.55;100141.38;4435491;32;20065;-68
2021/09/29 01:50:39;;;;;;;2.05;1.23;;;;;;;18.21;46.77;100135.63;4436492;32;20070;-68
2021/09/29 01:53:09;;;;;;;6.05;1.33;;;;;;;18.20;46.85;100134.06;4438859;32;20064;-69
2021/09/29 01:55:36;;;;;;;2.55;1.27;;;;;;;18.42;46.81;100132.22;4436282;32;20049;-68
2021/09/29 01:58:01;;;;;;;4.25;1.40;;;;;;;18.19;47.44;100141.06;4437710;32;20463;-68
2021/09/29 02:00:27;;;;;;;6.18;1.48;;;;;;;18.05;47.82;100139.91;4434907;32;20146;-69
2021/09/29 02:02:55;;;;;;;5.93;2.22;;;;;;;17.97;48.09;100140.88;4432695;32;20355;-68
2021/09/29 02:05:32;;;;;;;4.55;1.45;;;;;;;18.12;47.97;100148.00;4432164;32;21181;-69
2021/09/29 02:08:03;;;;;;;9.20;2.25;;;;;;;18.45;47.30;100144.66;4433611;32;20081;-69
2021/09/29 02:10:29;;;;;;;7.18;1.73;;;;;;;18.23;47.91;100164.38;4436800;32;20153;-68
2021/09/29 02:12:55;;;;;;;7.47;1.90;;;;;;;18.26;47.72;100158.47;4436327;32;20077;-69
2021/09/29 02:15:22;;;;;;;6.68;1.95;;;;;;;18.29;47.83;100171.72;4434845;32;20535;-69
2021/09/29 02:17:49;;;;;;;6.07;2.20;;;;;;;18.41;47.70;100173.38;4435578;32;20065;-69
2021/09/29 02:20:15;;;;;;;7.93;2.40;;;;;;;18.43;47.70;100176.50;4435494;32;20073;-69
2021/09/29 02:22:41;;;;;;;8.10;1.98;;;;;;;18.46;47.69;100194.62;4431912;32;20074;-69
2021/09/29 02:25:08;;;;;;;5.05;1.85;;;;;;;18.46;47.81;100195.44;4436763;32;20060;-68
2021/09/29 02:27:34;;;;;;;4.65;2.03;;;;;;;18.47;47.45;100199.84;4435987;32;20100;-69
2021/09/29 02:29:59;;;;;;;3.50;1.80;;;;;;;18.35;47.74;100203.84;4436640;32;20446;-69
2021/09/29 02:32:25;;;;;;;6.78;1.95;;;;;;;18.41;47.55;100218.94;4436627;32;20073;-69
2021/09/29 02:34:51;;;;;;;4.57;1.67;;;;;;;18.54;47.25;100227.09;4436677;32;20493;-69
2021/09/29 02:37:16;;;;;;;7.07;1.48;;;;;;;18.56;46.66;100221.69;4436812;32;20029;-68
2021/09/29 02:39:42;;;;;;;2.47;1.35;;;;;;;18.43;46.97;100222.09;4426295;32;20706;-69
2021/09/29 02:42:08;;;;;;;2.35;1.67;;;;;;;18.51;46.95;100220.34;4426532;32;20104;-68
2021/09/29 02:44:34;;;;;;;6.30;1.77;;;;;;;18.52;46.63;100223.97;4424965;32;20105;-68
2021/09/29 02:47:00;;;;;;;2.60;1.60;;;;;;;18.79;46.37;100224.19;4424987;32;20034;-68
2021/09/29 02:49:26;;;;;;;8.70;2.20;;;;;;;18.40;47.18;100225.16;4428334;32;20057;-68
2021/09/29 02:51:53;;;;;;;3.78;2.10;;;;;;;18.35;47.34;100240.13;4427155;32;20110;-68
2021/09/29 02:54:19;;;;;;;3.87;2.05;;;;;;;18.28;47.89;100241.34;4425683;32;20127;-68
2021/09/29 02:56:45;;;;;;;4.85;2.35;;;;;;;18.04;47.72;100234.38;4426802;32;20172;-68
2021/09/29 02:59:10;;;;;;;7.97;2.87;;;;;;;18.21;47.35;100241.00;4424705;32;20073;-69
2021/09/29 03:01:39;;;;;;;8.68;2.90;;;;;;;18.41;47.07;100250.28;4427175;32;20034;-69
2021/09/29 03:04:05;;;;;;;4.62;2.80;;;;;;;18.52;47.07;100255.31;4425161;32;20077;-69
2021/09/29 03:06:31;;;;;;;7.82;2.80;;;;;;;18.23;47.33;100247.00;4425964;32;20034;-68
2021/09/29 03:08:57;;;;;;;3.87;2.62;;;;;;;18.03;47.98;100256.38;4427759;32;20474;-68
2021/09/29 03:11:23;;;;;;;4.65;2.67;;;;;;;18.19;47.39;100252.12;4426862;32;20069;-68
2021/09/29 03:13:49;;;;;;;6.60;2.72;;;;;;;18.19;47.64;100257.84;4423941;32;20046;-68
2021/09/29 03:16:15;;;;;;;5.15;2.55;;;;;;;18.11;47.46;100262.41;4423258;32;20026;-68
2021/09/29 03:18:41;;;;;;;4.95;2.75;;;;;;;18.29;47.45;100264.91;4424420;32;20141;-68
2021/09/29 03:21:09;;;;;;;4.18;2.83;;;;;;;18.11;47.44;100273.78;4426391;32;20062;-68
2021/09/29 03:23:34;;;;;;;4.93;3.10;;;;;;;18.09;47.91;100270.66;4424603;32;20163;-68
2021/09/29 03:26:00;;;;;;;4.10;3.35;;;;;;;18.06;47.89;100271.66;4424191;32;20395;-68
2021/09/29 03:28:27;;;;;;;5.25;3.80;;;;;;;18.11;48.01;100276.62;4421848;32;20065;-68
2021/09/29 03:30:52;;;;;;;8.07;3.25;;;;;;;18.31;47.98;100283.06;4426337;32;20145;-68
2021/09/29 03:33:18;;;;;;;7.18;2.87;;;;;;;18.05;48.29;100282.28;4427491;32;20073;-68
2021/09/29 03:35:44;;;;;;;5.72;3.30;;;;;;;18.12;48.02;100281.81;4425576;32;20045;-68
2021/09/29 03:38:09;;;;;;;5.00;3.67;;;;;;;18.27;47.54;100287.41;4425537;32;20025;-68
2021/09/29 03:40:35;;;;;;;10.98;4.00;;;;;;;18.15;47.90;100274.34;4423886;32;20062;-68
2021/09/29 03:43:01;;;;;;;5.82;2.70;;;;;;;18.22;48.00;100279.62;4427095;32;20194;-69
2021/09/29 03:45:27;;;;;;;5.72;2.97;;;;;;;18.23;47.59;100273.41;4424392;32;20770;-68
2021/09/29 03:47:52;;;;;;;5.47;2.80;;;;;;;18.27;47.18;100276.81;4422407;32;20060;-69
2021/09/29 03:50:18;;;;;;;5.15;2.90;;;;;;;18.23;47.71;100270.56;4426930;32;20053;-68
2021/09/29 03:52:44;;;;;;;5.68;2.92;;;;;;;18.15;47.72;100262.94;4424027;32;20057;-69
2021/09/29 03:55:10;;;;;;;5.72;3.03;;;;;;;18.15;47.33;100280.81;4423568;32;20065;-68
2021/09/29 03:57:37;;;;;;;4.28;3.60;;;;;;;18.16;47.57;100275.91;4421618;32;20653;-69
2021/09/29 04:00:06;;;;;;;6.03;3.20;;;;;;;17.98;48.17;100281.94;4423473;32;20473;-68
2021/09/29 04:02:32;;;;;;;8.82;3.67;;;;;;;18.16;48.04;100293.00;4424246;32;20173;-69
2021/09/29 04:04:58;;;;;;;4.43;3.53;;;;;;;17.82;48.60;100300.38;4423620;32;20030;-69
2021/09/29 04:07:25;;;;;;;8.02;3.58;;;;;;;17.67;48.76;100308.19;4424680;32;20049;-68
2021/09/29 04:09:51;;;;;;;7.90;3.72;;;;;;;17.61;48.66;100310.19;4422805;32;20148;-69
2021/09/29 04:12:16;;;;;;;5.75;3.55;;;;;;;17.79;48.29;100307.84;4423760;32;20089;-68
2021/09/29 04:14:42;;;;;;;9.48;4.30;;;;;;;17.86;47.81;100310.25;4419917;32;20081;-68
2021/09/29 04:17:08;;;;;;;7.00;4.68;;;;;;;17.73;48.25;100317.59;4428086;32;20095;-68
2021/09/29 04:19:35;;;;;;;6.57;5.20;;;;;;;17.69;48.44;100317.03;4424310;32;20130;-69
2021/09/29 04:22:02;;;;;;;6.53;4.75;;;;;;;17.62;48.59;100317.44;4425428;32;20118;-69
2021/09/29 04:24:34;;;;;;;7.05;4.62;;;;;;;17.83;47.93;100321.87;4422786;32;20091;-68
2021/09/29 04:26:59;;;;;;;5.28;4.65;;;;;;;17.74;47.80;100325.63;4424498;32;20053;-68
2021/09/29 04:29:26;;;;;;;6.15;4.35;;;;;;;17.67;48.12;100334.59;4423321;32;20462;-68
2021/09/29 04:31:51;;;;;;;6.78;4.72;;;;;;;17.29;48.75;100339.69;4421786;32;20026;-68
2021/09/29 04:34:17;;;;;;;6.07;4.93;;;;;;;17.22;48.78;100349.44;4424223;32;20151;-69
2021/09/29 04:36:42;;;;;;;7.78;4.82;;;;;;;17.44;48.29;100349.81;4421337;32;20076;-69
2021/09/29 04:39:08;;;;;;;5.72;5.00;;;;;;;17.11;48.92;100354.94;4426223;32;20565;-68
2021/09/29 04:41:33;;;;;;;7.62;4.32;;;;;;;17.43;48.27;100356.75;4424833;32;20129;-68
2021/09/29 04:43:59;;;;;;;8.73;4.50;;;;;;;17.32;48.33;100362.25;4423033;32;20149;-68
2021/09/29 04:46:25;;;;;;;5.85;4.12;;;;;;;17.38;48.29;100354.59;4424703;32;20072;-68
2021/09/29 04:48:52;;;;;;;6.72;4.55;;;;;;;17.38;48.26;100350.97;4422249;32;20347;-69
2021/09/29 04:51:18;;;;;;;7.30;5.50;;;;;;;17.63;47.62;100345.41;4424975;32;20107;-69
2021/09/29 04:53:43;;;;;;;9.07;6.90;;;;;;;17.49;48.03;100357.62;4417980;32;20100;-69
2021/09/29 04:56:09;;;;;;;11.57;7.93;;;;;;;17.40;48.28;100352.03;4423588;32;20075;-69
2021/09/29 04:58:36;;;;;;;11.88;8.20;;;;;;;17.28;48.12;100353.13;4423123;32;20474;-69
2021/09/29 05:01:02;;;;;;;10.52;7.50;;;;;;;17.14;48.79;100358.84;4422172;32;20068;-69
2021/09/29 05:03:29;;;;;;;8.90;6.40;;;;;;;17.30;48.36;100367.66;4426194;32;20711;-69
2021/09/29 05:05:55;;;;;;;12.07;5.93;;;;;;;17.37;48.06;100367.22;4422007;32;20359;-69
2021/09/29 05:08:24;;;;;;;4.72;4.15;;;;;;;17.10;48.58;100367.59;4421180;32;20098;-69
2021/09/29 05:10:58;;;;;;;7.57;4.47;;;;;;;17.60;47.49;100379.75;4421834;32;20066;-68
2021/09/29 05:13:28;;;;;;;8.02;3.95;;;;;;;17.77;46.92;100373.00;4421457;32;20125;-69
2021/09/29 05:15:53;;;;;;;5.18;2.90;;;;;;;18.02;46.63;100380.09;4421997;32;20098;-68
2021/09/29 05:18:19;;;;;;;3.97;3.12;;;;;;;17.34;47.54;100373.91;4424472;32;20116;-69
2021/09/29 05:20:46;;;;;;;3.03;2.20;;;;;;;17.60;47.02;100374.06;4409696;32;20073;-69
2021/09/29 05:23:12;;;;;;;2.37;2.15;;;;;;;17.73;46.68;100372.44;4427560;32;20034;-69
2021/09/29 05:25:39;;;;;;;3.53;1.85;;;;;;;17.77;46.75;100370.16;4421459;32;20189;-69
2021/09/29 05:28:07;;;;;;;5.95;2.50;;;;;;;17.86;46.49;100380.66;4422836;32;20116;-68
2021/09/29 05:30:33;;;;;;;4.45;2.90;;;;;;;17.92;46.65;100386.41;4425975;32;20030;-69
2021/09/29 05:32:59;;;;;;;3.70;2.78;;;;;;;17.78;46.69;100393.72;4421565;32;20039;-69
2021/09/29 05:35:25;;;;;;;5.22;2.95;;;;;;;17.94;46.51;100384.62;4424231;32;20379;-68
2021/09/29 05:37:51;;;;;;;7.12;2.85;;;;;;;17.66;47.07;100394.84;4423726;32;20064;-69
2021/09/29 05:40:18;;;;;;;8.07;2.92;;;;;;;17.86;46.86;100392.03;4424888;32;20105;-69
2021/09/29 05:42:44;;;;;;;4.10;2.55;;;;;;;17.59;47.49;100400.97;4424461;32;20328;-69
2021/09/29 05:45:10;;;;;;;3.00;2.15;;;;;;;17.52;47.64;100398.53;4424436;32;20080;-68
2021/09/29 05:47:36;;;;;;;5.12;1.77;;;;;;;17.53;47.67;100405.78;4421557;32;20030;-68
2021/09/29 05:50:02;;;;;;;6.15;1.83;;;;;;;17.21;47.52;100412.50;4424117;32;20055;-68
2021/09/29 05:52:28;;;;;;;3.97;1.90;;;;;;;17.27;47.83;100411.28;4423368;32;20121;-68
2021/09/29 05:54:53;;;;;;;4.20;1.70;;;;;;;17.08;47.91;100409.94;4423721;32;20030;-68
2021/09/29 05:57:19;;;;;;;4.87;1.40;;;;;;;17.33;47.20;100414.22;4423750;32;20597;-68
2021/09/29 05:59:46;;;;;;;3.47;1.27;;;;;;;17.33;47.16;100417.84;4419713;32;20144;-68
2021/09/29 06:02:12;;;;;;;3.53;1.70;;;;;;;17.47;46.95;100433.37;4422710;32;20573;-68
2021/09/29 06:04:39;;;;;;;3.03;1.00;;;;;;;17.59;46.87;100435.91;4421146;32;20575;-68
2021/09/29 06:07:07;;;;;;;4.53;1.37;;;;;;;17.49;46.67;100442.97;4423358;32;20131;-68
2021/09/29 06:09:33;;;;;;;1.87;1.10;;;;;;;17.63;46.54;100449.91;4422004;32;20423;-68
2021/09/29 06:11:58;;;;;;;1.67;1.20;;;;;;;17.65;46.55;100442.44;4419754;32;20049;-68
2021/09/29 06:14:24;;;;;;;4.43;1.80;;;;;;;17.41;46.95;100447.47;4423351;32;20034;-68
2021/09/29 06:16:57;;;;;;;2.58;1.55;;;;;;;17.59;46.67;100452.97;4421937;32;20069;-68
2021/09/29 06:19:23;;;;;;;6.95;1.62;;;;;;;17.59;46.74;100455.81;4428272;32;20022;-68
2021/09/29 06:21:49;;;;;;;8.75;2.22;;;;;;;17.59;46.86;100461.50;4424070;32;20172;-68
2021/09/29 06:24:15;;;;;;;8.55;3.10;;;;;;;17.45;47.23;100464.34;4423910;32;20081;-68
2021/09/29 06:26:41;;;;;;;6.10;2.97;;;;;;;17.60;46.89;100470.81;4424963;32;20046;-68
2021/09/29 06:29:07;;;;;;;8.30;4.05;;;;;;;17.48;47.25;100469.84;4424804;32;20093;-68
2021/09/29 06:31:33;;;;;;;11.05;4.55;;;;;;;17.57;47.18;100468.97;4422351;32;20046;-68
2021/09/29 06:33:58;;;;;;;10.13;4.60;;;;;;;17.60;47.19;100474.44;4418813;32;20066;-68
2021/09/29 06:36:24;;;;;;;6.40;3.50;;;;;;;17.70;47.26;100473.06;4420980;32;20021;-68
2021/09/29 06:38:50;;;;;;;4.43;1.80;;;;;;;17.67;47.23;100471.19;4423011;32;20072;-68
2021/09/29 06:41:16;;;;;;;5.03;2.10;;;;;;;17.57;46.94;100483.97;4422931;32;20056;-68
2021/09/29 06:43:42;;;;;;;4.12;1.67;;;;;;;17.85;46.42;100488.03;4420014;32;20083;-68
2021/09/29 06:46:07;;;;;;;7.57;2.35;;;;;;;18.16;45.45;100495.97;4413851;32;20092;-69
2021/09/29 06:48:33;;;;;;;8.82;1.70;;;;;;;18.29;45.72;100489.97;4419178;32;20105;-69
2021/09/29 06:50:59;;;;;;;7.03;1.73;;;;;;;18.43;45.21;100509.84;4419289;32;20095;-69
2021/09/29 06:53:25;;;;;;;6.35;1.45;;;;;;;18.70;44.83;100502.94;4422432;32;20033;-69
2021/09/29 06:55:51;;;;;;;4.05;1.30;;;;;;;18.52;44.84;100511.78;4409222;32;20059;-69
2021/09/29 06:58:18;;;;;;;5.18;1.98;;;;;;;18.88;44.50;100520.53;4412888;32;20123;-69
2021/09/29 07:00:44;;;;;;;7.45;1.95;;;;;;;18.79;45.06;100514.19;4417279;32;20083;-70
2021/09/29 07:03:14;;;;;;;4.43;2.00;;;;;;;18.87;44.91;100518.94;4410993;32;21544;-69
2021/09/29 07:05:40;;;;;;;6.32;1.75;;;;;;;18.81;44.60;100531.59;4412303;32;20073;-69
2021/09/29 07:08:06;;;;;;;4.18;1.60;;;;;;;19.10;44.50;100542.81;4408003;32;20112;-70
2021/09/29 07:10:32;;;;;;;4.10;1.70;;;;;;;19.25;44.33;100552.06;4412745;32;20496;-70
2021/09/29 07:12:58;;;;;;;4.72;1.85;;;;;;;19.43;43.91;100555.37;4413161;32;20138;-70
2021/09/29 07:15:25;;;;;;;3.22;1.50;;;;;;;19.59;43.72;100559.69;4415326;32;20081;-69
2021/09/29 07:17:56;;;;;;;4.28;1.62;;;;;;;19.78;43.04;100570.25;4403670;32;20283;-69
2021/09/29 07:20:22;;;;;;;2.03;1.33;;;;;;;19.74;42.92;100577.47;4409873;32;20487;-69
2021/09/29 07:22:48;;;;;;;4.95;1.60;;;;;;;19.66;42.51;100577.16;4415461;32;20194;-70
2021/09/29 07:25:14;;;;;;;2.03;1.00;;;;;;;19.73;42.66;100575.91;4417774;32;20072;-70
2021/09/29 07:27:40;;;;;;;3.90;1.50;;;;;;;19.96;42.13;100583.38;4410354;32;20596;-70
2021/09/29 07:30:07;;;;;;;6.10;1.42;;;;;;;19.78;41.95;100590.22;4414852;32;20494;-69
2021/09/29 07:32:33;;;;;;;3.20;1.23;;;;;;;20.19;41.32;100587.22;4416984;32;20096;-69
2021/09/29 07:34:59;;;;;;;4.35;1.25;;;;;;;20.10;41.39;100590.22;4416182;32;20062;-70
2021/09/29 07:37:25;;;;;;;3.83;1.30;;;;;;;20.12;40.98;100604.81;4413012;32;20694;-70
2021/09/29 07:39:51;;;;;;;4.12;0.88;;;;;;;19.44;42.35;100596.13;4413655;32;20130;-70
2021/09/29 07:42:18;;;;;;;3.55;0.77;;;;;;;19.92;40.85;100607.75;4410981;32;20034;-70
2021/09/29 07:44:43;;;;;;;6.65;0.80;;;;;;;19.79;40.83;100608.16;4415938;32;20084;-70
2021/09/29 07:47:09;;;;;;;0.82;0.55;;;;;;;19.88;40.75;100610.81;4413701;32;20073;-70
2021/09/29 07:49:36;;;;;;;2.25;0.50;;;;;;;20.13;40.43;100623.53;4411044;32;20509;-71
2021/09/29 07:52:03;;;;;;;3.08;0.85;;;;;;;20.02;39.44;100627.03;4415873;32;20157;-69
2021/09/29 07:54:29;;;;;;;0.73;0.30;;;;;;;19.87;39.90;100629.25;4415591;32;20097;-70
2021/09/29 07:56:55;;;;;;;5.50;0.85;;;;;;;19.82;39.69;100624.25;4412669;32;20029;-70
2021/09/29 07:59:22;;;;;;;1.90;0.60;;;;;;;19.26;40.80;100636.34;4409729;32;20041;-69
2021/09/29 08:01:49;;;;;;;0.82;0.30;;;;;;;19.27;40.16;100633.03;4417450;32;20088;-70
2021/09/29 08:04:19;;;;;;;0.82;0.30;;;;;;;19.40;40.00;100633.47;4414885;32;20526;-70
2021/09/29 08:06:46;;;;;;;2.58;0.93;;;;;;;19.33;40.21;100630.25;4415699;32;20091;-70
2021/09/29 08:09:12;;;;;;;0.70;0.40;;;;;;;19.26;40.54;100627.78;4416853;32;21552;-70
2021/09/29 08:11:37;;;;;;;1.35;0.62;;;;;;;19.18;40.10;100643.78;4418361;32;20135;-70
2021/09/29 08:14:04;;;;;;;3.53;0.40;;;;;;;19.17;40.29;100634.44;4416371;32;20100;-70
2021/09/29 08:16:30;;;;;;;4.10;0.50;;;;;;;18.99;40.57;100656.78;4416812;32;20074;-70
2021/09/29 08:18:55;;;;;;;3.03;0.40;;;;;;;19.12;40.55;100651.50;4417023;32;20096;-70
2021/09/29 08:21:27;;;;;;;3.12;0.30;;;;;;;19.50;39.50;100646.28;4411270;32;20495;-70
2021/09/29 08:23:56;;;;;;;0.68;0.25;;;;;;;19.34;39.38;100644.03;4415182;32;20072;-70
2021/09/29 08:31:53;;;;;;;2.28;0.40;;;;;;;20.98;36.47;100663.13;3971352;32;15151310;-70
2021/09/29 08:34:24;;;;;;;2.67;0.30;;;;;;;20.98;36.47;100663.13;4422976;32;20098;-70
2021/09/29 08:36:55;;;;;;;1.35;0.50;;;;;;;20.95;35.93;100660.50;4419140;32;20130;-70
2021/09/29 08:53:08;;;;;;;0.45;0.20;;;;;;;22.33;33.79;100689.56;4418594;32;20133;-69
2021/09/29 08:55:47;;;;;;;2.72;0.43;;;;;;;21.45;34.82;100696.62;4417301;32;20082;-69
2021/09/29 09:15:33;;;;;;;1.83;0.50;;;;;;;22.67;33.37;100740.66;4422917;32;21038;-70
2021/09/29 09:17:50;;;;;;;3.17;0.30;;;;;;;22.34;33.92;100739.84;4419839;32;20714;-70
2021/09/29 09:20:19;;;;;;;3.78;0.60;;;;;;;21.63;35.57;100752.69;4426136;32;20065;-71
2021/09/29 09:22:52;;;;;;;2.65;0.30;;;;;;;22.38;34.19;100740.38;4413578;32;20081;-70
2021/09/29 09:25:30;;;;;;;3.83;0.43;;;;;;;22.63;34.04;100747.97;4413912;32;20548;-70
2021/09/29 09:27:56;;;;;;;2.40;0.40;;;;;;;22.57;34.08;100759.44;4419565;32;20423;-70
2021/09/29 09:30:28;;;;;;;2.03;0.52;;;;;;;22.25;33.79;100760.97;4422593;32;20112;-70
2021/09/29 09:32:56;;;;;;;3.05;0.62;;;;;;;22.61;34.04;100771.44;4419357;32;20050;-70
2021/09/29 09:35:24;;;;;;;2.28;0.37;;;;;;;22.40;34.33;100772.19;4416898;32;20096;-70
2021/09/29 09:37:55;;;;;;;3.65;0.70;;;;;;;22.62;33.95;100772.22;4417817;32;21043;-70
2021/09/29 09:40:21;;;;;;;3.28;0.62;;;;;;;22.00;35.15;100784.09;4419476;32;20467;-70
2021/09/29 09:42:56;;;;;;;5.37;0.70;;;;;;;21.81;35.30;100788.72;4425837;32;20379;-70
2021/09/29 09:45:34;;;;;;;10.57;0.90;;;;;;;21.94;35.23;100778.34;4426776;32;20052;-71
2021/09/29 09:48:00;;;;;;;7.12;0.77;;;;;;;21.98;35.34;100796.06;4418586;32;20162;-70
2021/09/29 09:50:29;;;;;;;4.40;0.77;;;;;;;21.90;35.84;100785.63;4423635;32;20059;-70
2021/09/29 09:52:55;;;;;;;3.28;1.02;;;;;;;22.41;35.18;100788.88;4407092;32;20534;-70
2021/09/29 09:55:23;;;;;;;4.85;0.82;;;;;;;22.76;34.39;100794.91;4423988;32;20045;-71
2021/09/29 09:57:57;;;;;;;4.07;1.02;;;;;;;23.66;33.23;100802.09;4419395;32;20115;-70
2021/09/29 10:00:27;;;;;;;6.07;0.77;;;;;;;23.27;33.07;100788.63;4420391;32;20095;-70
2021/09/29 10:02:55;;;;;;;5.03;0.80;;;;;;;23.72;33.02;100805.72;4421494;32;20434;-70
2021/09/29 10:05:24;;;;;;;6.75;0.80;;;;;;;23.78;32.50;100810.16;4423328;32;20097;-69
2021/09/29 10:07:50;;;;;;;5.28;1.15;;;;;;;24.33;32.02;100809.87;4419284;32;20092;-70
2021/09/29 10:13:18;;;;;;;6.15;0.77;;;;;;;23.82;32.50;100824.25;3990914;31;15016316;-70
2021/09/29 10:27:22;;;;;;;3.62;0.60;;;;;;;23.51;32.28;100854.88;3973051;32;15035200;-69
2021/09/29 10:29:56;;;;;;;2.83;0.52;;;;;;;23.51;32.28;100854.88;4417494;32;20505;-69
2021/09/29 10:35:09;;;;;;;0.88;0.20;;;;;;;22.62;32.57;100873.44;3942168;32;15729011;-70
2021/09/29 10:46:23;;;;;;;1.83;0.30;;;;;;;22.14;34.83;100877.66;3974610;32;15024879;-70
2021/09/29 10:49:05;;;;;;;2.80;0.52;;;;;;;22.14;34.83;100877.66;4430658;32;20045;-71
2021/09/29 10:52:19;;;;;;;2.03;0.40;;;;;;;21.52;35.48;100882.28;4432984;32;20140;-71
2021/09/29 11:33:27;;;;;;;1.87;0.22;;;;;;;22.01;32.91;100958.41;3996557;31;15022294;-71
2021/09/29 12:12:29;;;;;;;0.32;0.20;;;;;;;24.95;29.12;100993.19;3949700;32;15724551;-70
2021/09/29 12:14:58;;;;;;;1.15;0.20;;;;;;;24.95;29.12;100993.19;4421978;32;20068;-71
2021/09/29 12:17:27;;;;;;;1.80;0.47;;;;;;;25.18;28.65;100990.97;4424188;32;20129;-70
2021/09/29 12:19:55;;;;;;;2.30;0.32;;;;;;;25.24;28.49;101001.12;4426611;32;20066;-70
2021/09/29 12:22:23;;;;;;;2.67;0.40;;;;;;;25.43;28.28;101004.16;4427964;32;20105;-70
2021/09/29 12:24:57;;;;;;;2.50;0.40;;;;;;;24.71;28.94;101013.22;4424999;32;20134;-71
2021/09/29 12:27:32;;;;;;;4.22;0.60;;;;;;;24.43;29.53;100997.34;4424327;32;20071;-72
2021/09/29 12:30:03;;;;;;;2.45;0.22;;;;;;;24.80;29.17;101012.94;4422574;32;20081;-71
2021/09/29 12:32:43;;;;;;;2.92;0.20;;;;;;;24.44;29.06;101004.66;4423234;32;20084;-71
2021/09/29 12:40:35;;;;;;;4.55;0.37;;;;;;;25.69;27.89;101027.53;3966992;32;15017041;-71
2021/09/29 12:43:04;;;;;;;1.83;0.30;;;;;;;25.69;27.89;101027.53;4425282;32;20084;-71
2021/09/29 12:45:34;;;;;;;2.05;0.60;;;;;;;25.25;28.89;101031.50;4423959;32;20396;-70
2021/09/29 12:48:02;;;;;;;0.37;0.20;;;;;;;25.21;28.62;101028.12;4426944;32;20119;-70
2021/09/29 12:50:49;;;;;;;0.80;0.20;;;;;;;23.82;30.19;101048.44;4425339;32;20380;-70
2021/09/29 12:53:22;;;;;;;2.22;0.30;;;;;;;24.06;29.94;101035.12;4425874;32;20063;-70
2021/09/29 12:55:56;;;;;;;2.47;0.30;;;;;;;24.02;30.21;101040.31;4422835;32;21503;-71
2021/09/29 12:58:22;;;;;;;2.85;0.60;;;;;;;24.57;29.87;101019.25;4423359;32;20041;-71
2021/09/29 13:00:48;;;;;;;4.68;0.50;;;;;;;24.84;29.04;101052.94;4426266;32;21352;-70
2021/09/29 13:03:14;;;;;;;1.70;0.50;;;;;;;25.45;28.11;101029.56;4424341;32;20139;-71
2021/09/29 13:05:41;;;;;;;3.83;0.50;;;;;;;25.56;28.09;101035.25;4425094;32;20132;-71
2021/09/29 13:08:07;;;;;;;2.85;0.40;;;;;;;26.04;27.07;101049.78;4425353;32;20394;-70
2021/09/29 13:10:33;;;;;;;3.33;0.43;;;;;;;26.24;26.33;101043.56;4424659;32;20060;-70
2021/09/29 13:13:00;;;;;;;2.00;0.30;;;;;;;25.72;27.05;101051.63;4427143;32;20107;-72
2021/09/29 13:15:26;;;;;;;5.40;0.47;;;;;;;25.93;27.30;101064.28;4424104;32;20080;-71
2021/09/29 13:17:53;;;;;;;1.15;0.60;;;;;;;25.89;27.69;101058.03;4428145;32;20094;-71
2021/09/29 13:20:24;;;;;;;3.62;0.50;;;;;;;26.83;26.73;101057.84;4424285;32;20049;-70
2021/09/29 13:22:55;;;;;;;2.17;0.37;;;;;;;26.37;27.40;101079.09;4426363;32;20379;-71
2021/09/29 13:36:40;;;;;;;1.30;0.35;;;;;;;22.51;36.30;101079.91;4425972;32;19975;-69
2021/09/29 13:39:11;;;;;;;10.15;1.35;;;;;;;21.86;36.76;101083.88;4430462;32;21242;-69
2021/09/29 13:41:38;;;;;;;3.78;0.60;;;;;;;23.44;33.44;101079.47;4441610;32;20103;-69
2021/09/29 13:44:06;;;;;;;2.75;0.43;;;;;;;23.50;31.55;101093.84;4439844;32;20096;-69
2021/09/29 13:46:33;;;;;;;3.33;0.50;;;;;;;24.33;28.85;101082.41;4435046;32;20750;-69
2021/09/29 13:49:01;;;;;;;2.85;0.40;;;;;;;25.71;27.13;101087.53;4436967;32;20407;-70
2021/09/29 13:51:30;;;;;;;3.08;0.32;;;;;;;25.92;25.35;101098.09;4431861;32;20089;-70
2021/09/29 13:53:56;;;;;;;3.15;0.40;;;;;;;25.99;25.45;101100.47;4432043;32;20156;-70
2021/09/29 13:56:29;;;;;;;1.83;0.25;;;;;;;27.62;23.88;101108.25;4428619;32;20516;-70
2021/09/29 14:34:29;;;;;;;5.57;1.25;;;;;;;31.55;20.22;101180.09;3968910;32;15024960;-70
2021/09/29 14:36:54;;;;;;;5.05;0.90;;;;;;;31.55;20.22;101180.09;4418822;32;20075;-71
2021/09/29 14:39:22;;;;;;;9.60;1.50;;;;;;;31.68;19.90;101183.63;4418198;32;20566;-71
2021/09/29 14:41:48;;;;;;;6.28;1.42;;;;;;;30.65;20.44;101183.16;4416585;32;20088;-71
2021/09/29 14:44:14;;;;;;;5.78;1.10;;;;;;;31.22;20.05;101181.81;4416675;32;20549;-72